createdAt,value
2023-05-24T00:00:27.154Z,11.80
2023-05-24T00:05:52.798Z,10.40
2023-05-24T00:10:56.590Z,11.30
2023-05-24T00:16:00.788Z,10.70
2023-05-24T00:21:04.582Z,11.70
2023-05-24T00:26:08.798Z,13.30
2023-05-24T00:31:13.869Z,15.10
2023-05-24T00:36:17.809Z,15.00
2023-05-24T00:41:21.619Z,16.60
2023-05-24T00:46:33.533Z,17.70
2023-05-24T00:51:38.813Z,18.60
2023-05-24T00:56:45.511Z,16.70
2023-05-24T01:01:49.219Z,19.90
2023-05-24T01:07:02.077Z,17.90
2023-05-24T01:12:29.304Z,15.30
2023-05-24T01:18:01.981Z,2.30
2023-05-24T01:23:27.900Z,1.20
2023-05-24T01:28:34.713Z,1.30
2023-05-24T01:33:43.067Z,1.10
2023-05-24T01:38:50.873Z,0.80
2023-05-24T01:44:26.756Z,1.00
2023-05-24T01:49:34.934Z,1.40
2023-05-24T01:54:50.812Z,2.70
2023-05-24T01:59:54.810Z,2.50
2023-05-24T02:04:59.661Z,1.90
2023-05-24T02:10:04.542Z,1.90
2023-05-24T02:15:08.755Z,2.30
2023-05-24T02:20:13.922Z,2.60
2023-05-24T02:25:17.863Z,2.80
2023-05-24T02:30:21.676Z,2.90
2023-05-24T02:35:27.349Z,2.60
2023-05-24T02:40:31.279Z,2.60
2023-05-24T02:45:34.984Z,2.40
2023-05-24T02:50:38.651Z,2.50
2023-05-24T02:55:44.359Z,2.20
2023-05-24T03:00:50.415Z,3.10
2023-05-24T03:05:55.616Z,3.20
2023-05-24T03:10:59.217Z,2.30
2023-05-24T03:16:02.793Z,2.20
2023-05-24T03:21:07.850Z,2.20
2023-05-24T03:26:13.509Z,2.40
2023-05-24T03:31:17.298Z,2.10
2023-05-24T03:36:22.585Z,2.30
2023-05-24T03:41:27.842Z,2.50
2023-05-24T03:46:35.383Z,2.50
2023-05-24T03:51:39.236Z,3.20
2023-05-24T03:56:43.002Z,2.70
2023-05-24T04:01:46.826Z,2.40
2023-05-24T04:06:51.758Z,3.60
2023-05-24T04:11:55.705Z,2.80
2023-05-24T04:17:00.236Z,3.00
2023-05-24T04:22:04.258Z,3.50
2023-05-24T04:27:08.349Z,3.00
2023-05-24T04:32:15.204Z,3.90
2023-05-24T04:37:19.306Z,3.40
2023-05-24T04:42:25.418Z,3.50
2023-05-24T04:47:29.539Z,4.10
2023-05-24T04:52:36.854Z,3.90
2023-05-24T04:57:40.434Z,4.00
2023-05-24T05:02:44.147Z,3.60
2023-05-24T05:07:48.936Z,3.50
2023-05-24T05:12:52.732Z,4.10
2023-05-24T05:17:56.575Z,4.50
2023-05-24T05:23:00.419Z,5.10
2023-05-24T05:28:04.020Z,5.40
2023-05-24T05:33:07.724Z,5.80
2023-05-24T05:38:11.578Z,5.30
2023-05-24T05:43:15.259Z,5.30
2023-05-24T05:48:19.101Z,5.70
2023-05-24T05:53:22.707Z,4.80
2023-05-24T05:58:27.258Z,3.40
2023-05-24T06:03:31.285Z,3.60
2023-05-24T06:08:35.495Z,3.80
2023-05-24T06:13:39.177Z,3.80
2023-05-24T06:18:50.178Z,3.40
2023-05-24T06:24:03.165Z,3.90
2023-05-24T06:29:08.024Z,3.90
2023-05-24T06:34:11.665Z,3.80
2023-05-24T06:39:16.601Z,3.70
2023-05-24T06:44:25.299Z,3.80
2023-05-24T06:49:29.306Z,3.80
2023-05-24T06:54:32.997Z,3.60
2023-05-24T06:59:36.651Z,3.50
2023-05-24T07:04:42.219Z,3.80
2023-05-24T07:09:46.685Z,3.40
2023-05-24T07:14:50.488Z,3.50
2023-05-24T07:19:54.274Z,3.50
2023-05-24T07:24:58.238Z,3.50
2023-05-24T07:30:02.881Z,4.00
2023-05-24T07:35:08.169Z,3.80
2023-05-24T07:40:12.520Z,3.20
2023-05-24T07:45:16.430Z,4.20
2023-05-24T07:50:20.163Z,4.00
2023-05-24T07:55:23.909Z,3.90
2023-05-24T08:00:28.134Z,4.30
2023-05-24T08:05:32.565Z,4.30
2023-05-24T08:10:36.211Z,4.40
2023-05-24T08:15:39.890Z,4.00
2023-05-24T08:20:43.740Z,4.20
2023-05-24T08:25:47.884Z,5.00
2023-05-24T08:30:52.298Z,5.40
2023-05-24T08:35:56.775Z,4.80
2023-05-24T08:41:00.836Z,4.50
2023-05-24T08:46:06.151Z,4.30
2023-05-24T08:51:10.173Z,4.80
2023-05-24T08:56:20.870Z,4.10
2023-05-24T09:01:26.634Z,4.30
2023-05-24T09:06:32.992Z,4.00
2023-05-24T09:11:38.815Z,4.30
2023-05-24T09:16:45.565Z,4.60
2023-05-24T09:21:58.113Z,4.50
2023-05-24T09:27:07.497Z,4.40
2023-05-24T09:32:11.915Z,3.80
2023-05-24T09:37:18.161Z,3.80
2023-05-24T09:42:25.960Z,4.50
2023-05-24T09:47:35.286Z,4.60
2023-05-24T09:52:39.951Z,4.90
2023-05-24T09:57:50.799Z,4.40
2023-05-24T10:03:05.067Z,4.50
2023-05-24T10:08:10.569Z,4.10
2023-05-24T10:13:18.167Z,4.10
2023-05-24T10:18:22.209Z,3.60
2023-05-24T10:23:30.821Z,3.40
2023-05-24T10:28:43.223Z,3.90
2023-05-24T10:33:48.906Z,3.20
2023-05-24T10:38:53.534Z,4.00
2023-05-24T10:44:09.210Z,4.10
2023-05-24T10:49:15.473Z,3.40
2023-05-24T10:54:20.427Z,4.20
2023-05-24T10:59:47.389Z,4.60
2023-05-24T11:04:51.697Z,3.70
2023-05-24T11:10:00.206Z,4.30
2023-05-24T11:15:04.497Z,3.70
2023-05-24T11:20:09.653Z,3.90
2023-05-24T11:25:13.863Z,3.70
2023-05-24T11:30:18.881Z,4.00
2023-05-24T11:35:26.170Z,3.80
2023-05-24T11:40:30.594Z,3.50
2023-05-24T11:45:34.730Z,3.40
2023-05-24T11:50:48.805Z,3.20
2023-05-24T11:55:54.821Z,3.00
2023-05-24T12:00:59.016Z,3.50
2023-05-24T12:06:03.206Z,3.70
2023-05-24T12:11:07.036Z,3.10
2023-05-24T12:16:12.390Z,3.90
2023-05-24T12:21:17.260Z,3.90
2023-05-24T12:26:22.651Z,4.20
2023-05-24T12:31:27.219Z,3.70
2023-05-24T12:36:30.912Z,3.30
2023-05-24T12:41:35.160Z,3.40
2023-05-24T12:46:38.973Z,3.30
2023-05-24T12:51:43.876Z,4.00
2023-05-24T12:56:47.783Z,3.80
2023-05-24T13:01:53.005Z,3.40
2023-05-24T13:06:57.788Z,3.50
2023-05-24T13:12:01.755Z,3.90
2023-05-24T13:17:06.157Z,3.10
2023-05-24T13:22:10.351Z,3.50
2023-05-24T13:27:14.022Z,3.40
2023-05-24T13:32:17.675Z,3.20
2023-05-24T13:37:21.561Z,3.00
2023-05-24T13:42:25.609Z,3.20
2023-05-24T13:47:39.274Z,3.00
2023-05-24T13:52:44.095Z,4.50
2023-05-24T13:57:52.019Z,4.40
2023-05-24T14:02:56.348Z,3.70
2023-05-24T14:08:06.928Z,3.80
2023-05-24T14:13:36.662Z,4.40
2023-05-24T14:18:38.356Z,2.60
2023-05-24T14:23:42.374Z,3.00
2023-05-24T14:28:46.579Z,2.70
2023-05-24T14:33:50.246Z,2.50
2023-05-24T14:38:55.745Z,2.80
2023-05-24T14:44:00.244Z,2.80
2023-05-24T14:49:05.952Z,3.00
2023-05-24T14:54:12.699Z,2.70
2023-05-24T14:59:17.756Z,2.90
2023-05-24T15:04:22.090Z,2.90
2023-05-24T15:09:27.824Z,3.30
2023-05-24T15:14:32.067Z,2.90
2023-05-24T15:19:36.431Z,2.60
2023-05-24T15:24:40.677Z,3.00
2023-05-24T15:29:44.333Z,2.60
2023-05-24T15:34:48.000Z,2.40
2023-05-24T15:39:53.237Z,2.70
2023-05-24T15:44:59.875Z,3.80
2023-05-24T15:50:03.567Z,3.20
2023-05-24T15:55:08.922Z,2.20
2023-05-24T16:00:13.571Z,2.10
2023-05-24T16:05:20.981Z,2.40
2023-05-24T16:10:27.526Z,2.40
2023-05-24T16:15:35.199Z,1.90
2023-05-24T16:20:39.664Z,2.10
2023-05-24T16:25:49.734Z,1.80
2023-05-24T16:30:56.359Z,2.10
2023-05-24T16:36:03.466Z,2.50
2023-05-24T16:41:07.350Z,2.60
2023-05-24T16:46:11.265Z,3.10
2023-05-24T16:51:16.883Z,2.40
2023-05-24T16:56:20.720Z,2.80
2023-05-24T17:01:26.081Z,3.60
2023-05-24T17:06:29.771Z,2.30
2023-05-24T17:11:33.356Z,2.10
2023-05-24T17:16:37.206Z,2.30
2023-05-24T17:21:41.231Z,2.80
2023-05-24T17:26:45.725Z,3.10
2023-05-24T17:31:49.609Z,3.20
2023-05-24T17:36:53.287Z,2.40
2023-05-24T17:41:56.922Z,3.10
2023-05-24T17:47:02.057Z,2.80
2023-05-24T17:52:07.082Z,3.40
2023-05-24T17:57:11.054Z,2.70
2023-05-24T18:02:14.688Z,3.10
2023-05-24T18:07:18.867Z,2.80
2023-05-24T18:12:28.000Z,3.30
2023-05-24T18:17:31.982Z,3.00
2023-05-24T18:22:35.908Z,3.40
2023-05-24T18:27:39.678Z,2.90
2023-05-24T18:32:55.945Z,3.00
2023-05-24T18:38:06.783Z,2.90
2023-05-24T18:43:10.524Z,3.70
2023-05-24T18:48:14.285Z,3.60
2023-05-24T18:53:18.237Z,3.50
2023-05-24T18:58:22.436Z,3.60
2023-05-24T19:03:26.244Z,5.30
2023-05-24T19:08:32.371Z,6.30
2023-05-24T19:13:36.768Z,5.40
2023-05-24T19:18:43.523Z,4.50
2023-05-24T19:23:49.277Z,5.10
2023-05-24T19:28:54.444Z,4.60
2023-05-24T19:34:00.414Z,5.50
2023-05-24T19:39:05.133Z,5.60
2023-05-24T19:44:08.966Z,5.80
2023-05-24T19:49:12.734Z,6.00
2023-05-24T19:54:17.110Z,6.30
2023-05-24T19:59:21.068Z,12.10
2023-05-24T20:04:24.771Z,9.80
2023-05-24T20:09:28.555Z,7.90
2023-05-24T20:14:32.526Z,7.10
2023-05-24T20:19:36.130Z,5.00
2023-05-24T20:24:39.901Z,4.90
2023-05-24T20:29:43.853Z,4.80
2023-05-24T20:34:47.496Z,5.20
2023-05-24T20:39:51.415Z,5.10
2023-05-24T20:44:55.142Z,5.30
2023-05-24T20:49:58.906Z,5.60
2023-05-24T20:55:02.742Z,5.80
2023-05-24T21:00:07.098Z,5.50
2023-05-24T21:05:10.858Z,5.80
2023-05-24T21:10:17.908Z,5.90
2023-05-24T21:15:21.667Z,5.80
2023-05-24T21:20:25.490Z,5.80
2023-05-24T21:25:29.313Z,5.40
2023-05-24T21:30:33.035Z,5.90
2023-05-24T21:35:37.580Z,6.90
2023-05-24T21:40:41.283Z,5.80
2023-05-24T21:45:45.235Z,6.20
2023-05-24T21:50:49.373Z,8.30
2023-05-24T21:55:53.084Z,11.30
2023-05-24T22:00:56.921Z,12.50
2023-05-24T22:06:01.327Z,13.00
2023-05-24T22:11:05.008Z,13.10
2023-05-24T22:16:09.683Z,13.70
2023-05-24T22:21:14.782Z,14.40
2023-05-24T22:26:20.575Z,14.30
2023-05-24T22:31:26.147Z,11.50
2023-05-24T22:36:34.147Z,19.00
2023-05-24T22:41:37.769Z,18.50
2023-05-24T22:46:41.626Z,14.30
2023-05-24T22:51:53.033Z,14.80
2023-05-24T22:56:57.062Z,13.80
2023-05-24T23:02:00.715Z,14.00
2023-05-24T23:07:05.507Z,12.30
2023-05-24T23:12:09.799Z,12.10
2023-05-24T23:17:13.784Z,13.30
2023-05-24T23:22:18.835Z,10.80
2023-05-24T23:27:31.372Z,11.70
2023-05-24T23:32:35.868Z,11.20
2023-05-24T23:37:40.894Z,10.70
2023-05-24T23:42:49.402Z,10.60
2023-05-24T23:47:53.382Z,11.90
2023-05-24T23:52:57.212Z,11.10
2023-05-24T23:58:00.985Z,10.90
